TimeEDT,TemperatureF,Dew PointF,Humidity,Sea Level PressureIn,VisibilityMPH,Wind Direction,Wind SpeedMPH,Gust SpeedMPH,PrecipitationIn,Events,Conditions,WindDirDegrees,DateUTC
12:53 AM,52.0,46.9,83,30.22,10.0,ENE,3.5,-,N/A,,Clear,70,2013-03-10 05:53:00
1:53 AM,51.1,46.9,86,30.20,10.0,East,3.5,-,N/A,,Clear,80,2013-03-10 06:53:00
3:53 AM,50.0,46.9,89,30.19,10.0,Calm,Calm,-,N/A,,Clear,0,2013-03-10 07:53:00
4:53 AM,48.9,46.9,93,30.18,10.0,Calm,Calm,-,N/A,,Clear,0,2013-03-10 08:53:00
5:53 AM,50.0,46.9,89,30.17,10.0,Calm,Calm,-,N/A,,Clear,0,2013-03-10 09:53:00
6:53 AM,52.0,48.9,89,30.19,10.0,Calm,Calm,-,N/A,,Clear,0,2013-03-10 10:53:00
8:53 AM,55.9,53.1,90,30.24,10.0,Calm,Calm,-,N/A,,Clear,0,2013-03-10 12:53:00
9:53 AM,64.0,55.0,73,30.23,10.0,NNE,3.5,-,N/A,,Clear,30,2013-03-10 13:53:00
10:53 AM,68.0,54.0,61,30.22,10.0,East,8.1,-,N/A,,Clear,80,2013-03-10 14:53:00
11:53 AM,71.1,52.0,51,30.21,10.0,East,6.9,-,N/A,,Mostly Cloudy,100,2013-03-10 15:53:00
12:53 PM,73.0,53.1,49,30.19,10.0,SE,13.8,21.9,N/A,,Partly Cloudy,130,2013-03-10 16:53:00
1:53 PM,73.0,51.1,46,30.17,10.0,ESE,13.8,23.0,N/A,,Partly Cloudy,110,2013-03-10 17:53:00
2:53 PM,73.0,50.0,44,30.15,10.0,SE,12.7,21.9,N/A,,Partly Cloudy,130,2013-03-10 18:53:00
3:53 PM,73.0,51.1,46,30.15,10.0,ESE,13.8,21.9,N/A,,Mostly Cloudy,110,2013-03-10 19:53:00
4:53 PM,72.0,51.1,48,30.16,10.0,SE,12.7,19.6,N/A,,Scattered Clouds,130,2013-03-10 20:53:00
5:53 PM,71.1,50.0,47,30.16,10.0,ESE,10.4,19.6,N/A,,Clear,120,2013-03-10 21:53:00
6:53 PM,69.1,52.0,54,30.16,10.0,SE,8.1,17.3,N/A,,Clear,130,2013-03-10 22:53:00
7:53 PM,66.0,52.0,60,30.16,10.0,ESE,5.8,-,N/A,,Clear,110,2013-03-10 23:53:00
8:53 PM,63.0,53.1,70,30.17,10.0,ESE,3.5,-,N/A,,Clear,120,2013-03-11 00:53:00
9:53 PM,63.0,53.1,70,30.17,10.0,ESE,5.8,-,N/A,,Clear,110,2013-03-11 01:53:00
10:53 PM,63.0,53.1,70,30.17,10.0,ESE,4.6,-,N/A,,Clear,120,2013-03-11 02:53:00
11:53 PM,61.0,53.1,75,30.16,10.0,ESE,3.5,-,N/A,,Clear,110,2013-03-11 03:53:00
12:53 AM,57.9,53.1,84,30.15,10.0,Calm,Calm,-,N/A,,Clear,0,2013-03-11 04:53:00